Maersk Rosario — V2BG2 — position and weather

sailwx.info

Track history (hours):
 
Tides and Currents Weather Stations Pressure Air Temp Water Temp Dewpoint Dewpoint Depression Visibility Wind Speed Wind Dir Waves Ship Positions

Maersk Rosario

Last reported at 2016-May-05 22:33 UTC. Time now 2016-May-06 01:44 UTC.
Position N 50°23' E 000°21'.

Length 161.1 m; beam 25 m; draft 9.5 m.

Type: Cargo ship. MMSI: 304814000.

Date/timePositionNaut miles runAvg speedWind from/ knotsBaromVisibWave heightAir tempDewpointWater temp
2016-May-05 22:33N 50°23' E 000°21'1414.0
2016-May-05 21:33N 50°20' W 000°01'1514.9
2016-May-05 20:33N 50°16' W 000°23'1816.0
2016-May-05 19:26N 50°11' W 000°50'1516.7
2016-May-05 18:33N 50°07' W 001°12'2116.5
2016-May-05 17:16N 50°02' W 001°44'1516.1
2016-May-05 16:19N 49°58' W 002°07'1716.0
2016-May-05 15:16N 49°53' W 002°32'1115.4
2016-May-05 14:33N 49°49' W 002°48'1514.6
2016-May-05 13:33N 49°46' W 003°10'1414.5
2016-May-05 12:33N 49°42' W 003°32'1515.0
2016-May-05 11:33N 49°38' W 003°54'1514.6
2016-May-05 10:32N 49°34' W 004°16'2114.6
2016-May-05 09:05N 49°28' W 004°47'1014.7
2016-May-05 08:26N 49°25' W 005°01'  
2016-May-02 12:22N 40°21' W 029°60'  
Track history (hours):
 
Tides and Currents Weather Stations Pressure Air Temp Water Temp Dewpoint Dewpoint Depression Visibility Wind Speed Wind Dir Waves Ship Positions

Maersk Rosario

Last reported at 2016-May-05 22:33 UTC. Time now 2016-May-06 01:44 UTC.
Position N 50°23' E 000°21'.

Length 161.1 m; beam 25 m; draft 9.5 m.

Type: Cargo ship. MMSI: 304814000.

Date/timePositionNaut miles runAvg speedWind from/ knotsBaromVisibWave heightAir tempDewpointWater temp
2016-May-05 22:33N 50°23' E 000°21'1414.0
2016-May-05 21:33N 50°20' W 000°01'1514.9
2016-May-05 20:33N 50°16' W 000°23'1816.0
2016-May-05 19:26N 50°11' W 000°50'1516.7
2016-May-05 18:33N 50°07' W 001°12'2116.5
2016-May-05 17:16N 50°02' W 001°44'1516.1
2016-May-05 16:19N 49°58' W 002°07'1716.0
2016-May-05 15:16N 49°53' W 002°32'1115.4
2016-May-05 14:33N 49°49' W 002°48'1514.6
2016-May-05 13:33N 49°46' W 003°10'1414.5
2016-May-05 12:33N 49°42' W 003°32'1515.0
2016-May-05 11:33N 49°38' W 003°54'1514.6
2016-May-05 10:32N 49°34' W 004°16'2114.6
2016-May-05 09:05N 49°28' W 004°47'1014.7
2016-May-05 08:26N 49°25' W 005°01'  
2016-May-02 12:22N 40°21' W 029°60'  

Dump ship's entire track history